Time;durP1;ratioP1;P1;durP2;ratioP2;P2;SDS_P1;SDS_P2;PMS_P1;PMS_P2;Temp;Humidity;BMP_temperature;BMP_pressure;BME280_temperature;BME280_humidity;BME280_pressure;Samples;Min_cycle;Max_cycle;Signal;HPM_P1;HPM_P2
2022/04/22 00:00:09;;;;;;;346.97;136.43;;;;;;;11.62;85.35;99612.91;341075;28;1361;-75
2022/04/22 00:00:19;;;;;;;343.20;133.07;;;;;;;11.60;85.49;99618.22;341025;28;1313;-74
2022/04/22 00:00:30;;;;;;;341.23;132.63;;;;;;;11.62;85.36;99613.75;343637;28;1302;-75
2022/04/22 00:00:40;;;;;;;344.73;134.27;;;;;;;11.61;85.59;99621.69;342549;28;1334;-74
2022/04/22 00:00:51;;;;;;;348.47;136.93;;;;;;;11.61;85.49;99622.53;342591;28;1321;-75
2022/04/22 00:01:01;;;;;;;349.75;138.35;;;;;;;11.62;85.86;99611.13;343504;28;1208;-75
2022/04/22 00:01:12;;;;;;;348.90;138.17;;;;;;;11.58;85.61;99606.94;342334;28;1295;-75
2022/04/22 00:01:22;;;;;;;346.88;136.57;;;;;;;11.61;85.67;99617.28;339611;28;1346;-74
2022/04/22 00:01:35;;;;;;;344.33;135.53;;;;;;;11.60;85.64;99615.59;341296;28;1465;-74
2022/04/22 00:01:46;;;;;;;343.75;135.57;;;;;;;11.59;85.65;99616.50;342462;28;904;-74
2022/04/22 00:01:56;;;;;;;342.87;134.70;;;;;;;11.60;85.64;99620.84;341016;28;928;-75
2022/04/22 00:02:07;;;;;;;345.40;135.05;;;;;;;11.59;85.75;99619.13;341101;28;1275;-75
2022/04/22 00:02:17;;;;;;;349.53;135.77;;;;;;;11.59;85.62;99619.13;340825;28;2036;-74
2022/04/22 00:02:28;;;;;;;351.20;136.23;;;;;;;11.58;85.81;99619.19;337233;29;994;-74
2022/04/22 00:02:39;;;;;;;350.03;136.23;;;;;;;11.56;85.84;99619.25;339734;28;1283;-74
2022/04/22 00:02:49;;;;;;;347.33;135.48;;;;;;;11.57;86.02;99620.13;342411;28;2578;-74
2022/04/22 00:02:59;;;;;;;344.80;133.90;;;;;;;11.57;85.79;99615.72;340955;28;1750;-75
2022/04/22 00:03:10;;;;;;;344.37;133.63;;;;;;;11.58;85.90;99612.19;339765;29;957;-74
2022/04/22 00:03:20;;;;;;;345.45;134.43;;;;;;;11.57;85.77;99610.47;342771;28;1339;-74
2022/04/22 00:03:31;;;;;;;346.43;134.77;;;;;;;11.59;85.79;99619.13;341220;28;1078;-74
2022/04/22 00:03:41;;;;;;;349.80;134.73;;;;;;;11.59;85.84;99619.13;341049;28;1204;-75
2022/04/22 00:03:52;;;;;;;351.57;137.00;;;;;;;11.59;85.89;99608.66;340894;28;3720;-75
2022/04/22 00:04:03;;;;;;;352.00;138.98;;;;;;;11.60;85.75;99609.50;340965;28;5053;-76
2022/04/22 00:04:14;;;;;;;352.60;141.93;;;;;;;11.59;85.91;99613.88;343680;28;897;-74
2022/04/22 00:04:24;;;;;;;353.05;141.02;;;;;;;11.61;85.92;99612.06;342428;28;1412;-73
2022/04/22 00:04:34;;;;;;;352.27;140.47;;;;;;;11.59;86.06;99608.66;342189;28;5624;-74
2022/04/22 00:04:45;;;;;;;349.43;138.33;;;;;;;11.59;86.20;99613.88;341031;28;1118;-74
2022/04/22 00:04:56;;;;;;;348.40;138.82;;;;;;;11.60;85.99;99617.34;340516;28;2293;-74
2022/04/22 00:05:06;;;;;;;347.67;138.25;;;;;;;11.60;86.13;99605.09;339966;28;1291;-75
2022/04/22 00:05:17;;;;;;;346.17;138.13;;;;;;;11.62;86.57;99612.91;341114;28;834;-75
2022/04/22 00:05:27;;;;;;;343.30;135.37;;;;;;;11.60;86.27;99617.34;342185;28;1311;-76
2022/04/22 00:05:38;;;;;;;346.23;137.20;;;;;;;11.60;86.23;99604.25;341256;28;1370;-75
2022/04/22 00:05:48;;;;;;;348.87;140.77;;;;;;;11.61;86.24;99619.06;342470;28;1256;-74
2022/04/22 00:06:00;;;;;;;351.20;143.27;;;;;;;11.62;86.25;99607.66;338639;28;1315;-74
2022/04/22 00:06:11;;;;;;;351.45;143.38;;;;;;;11.63;86.14;99609.38;342086;28;1279;-74
2022/04/22 00:06:22;;;;;;;350.45;140.90;;;;;;;11.64;85.94;99621.56;341218;28;1501;-74
2022/04/22 00:06:32;;;;;;;352.53;140.23;;;;;;;11.62;86.55;99608.50;341189;28;1198;-74
2022/04/22 00:06:43;;;;;;;350.08;139.15;;;;;;;11.64;86.17;99611.91;345258;28;1315;-75
2022/04/22 00:06:53;;;;;;;347.43;139.07;;;;;;;11.64;86.21;99609.28;344971;28;2166;-74
2022/04/22 00:07:04;;;;;;;342.95;137.27;;;;;;;11.64;86.37;99608.44;343362;28;1762;-74
2022/04/22 00:07:15;;;;;;;340.80;136.60;;;;;;;11.66;85.92;99617.94;340841;28;1784;-74
2022/04/22 00:07:28;;;;;;;342.03;138.20;;;;;;;11.65;86.16;99607.53;341279;28;1254;-75
2022/04/22 00:07:38;;;;;;;343.25;138.27;;;;;;;11.67;85.88;99616.16;342392;28;1703;-74
2022/04/22 00:07:48;;;;;;;343.65;138.88;;;;;;;11.66;86.11;99615.31;342492;28;1200;-74
2022/04/22 00:07:59;;;;;;;342.97;136.13;;;;;;;11.66;86.42;99615.31;343355;28;1937;-74
2022/04/22 00:08:09;;;;;;;342.90;135.85;;;;;;;11.69;86.18;99616.09;341346;28;887;-74
2022/04/22 00:08:22;;;;;;;343.40;135.30;;;;;;;11.68;86.25;99611.78;339742;29;1245;-75
2022/04/22 00:08:32;;;;;;;346.42;138.98;;;;;;;11.68;86.23;99617.00;340577;28;1505;-74
2022/04/22 00:08:42;;;;;;;346.00;138.53;;;;;;;11.68;85.92;99617.00;343828;28;1319;-74
2022/04/22 00:08:53;;;;;;;345.90;139.27;;;;;;;11.66;86.01;99612.69;339802;29;1251;-74
2022/04/22 00:09:03;;;;;;;344.93;138.63;;;;;;;11.68;86.11;99611.78;340803;28;1188;-74
2022/04/22 00:09:14;;;;;;;346.43;139.17;;;;;;;11.67;86.20;99610.94;342124;28;1200;-75
2022/04/22 00:09:24;;;;;;;346.17;137.45;;;;;;;11.69;85.89;99613.47;346439;28;1190;-74
2022/04/22 00:09:34;;;;;;;346.37;136.20;;;;;;;11.68;86.05;99611.78;345138;28;1050;-74
2022/04/22 00:09:45;;;;;;;347.77;138.45;;;;;;;11.69;86.05;99614.31;345160;28;1566;-74
2022/04/22 00:09:55;;;;;;;347.77;140.07;;;;;;;11.68;85.92;99607.38;340949;28;1225;-74
2022/04/22 00:10:08;;;;;;;347.75;139.88;;;;;;;11.68;86.05;99611.78;342132;28;1233;-74
2022/04/22 00:10:19;;;;;;;347.73;138.05;;;;;;;11.65;86.28;99603.13;344024;28;829;-74
2022/04/22 00:10:29;;;;;;;345.47;136.33;;;;;;;11.69;86.10;99609.09;345244;28;840;-74
2022/04/22 00:11:29;;;;;;;344.17;137.82;;;;;;;11.69;86.10;99603.84;342449;28;916;-75
2022/04/22 00:11:39;;;;;;;341.98;137.23;;;;;;;11.71;86.21;99608.97;340332;28;1518;-75
2022/04/22 00:11:49;;;;;;;344.58;136.73;;;;;;;11.68;86.27;99606.53;340605;28;1861;-75
2022/04/22 00:11:59;;;;;;;348.40;137.63;;;;;;;11.66;86.39;99599.59;341676;28;1289;-75
2022/04/22 00:12:10;;;;;;;349.80;140.40;;;;;;;11.65;86.55;99605.75;342453;28;931;-75
2022/04/22 00:12:21;;;;;;;348.20;141.83;;;;;;;11.66;86.22;99599.59;343449;28;1160;-75
2022/04/22 00:12:31;;;;;;;345.17;139.95;;;;;;;11.68;86.35;99606.53;340763;28;1328;-75
2022/04/22 00:12:43;;;;;;;345.13;139.40;;;;;;;11.68;86.30;99602.13;341128;28;1237;-75
2022/04/22 00:12:54;;;;;;;347.40;138.32;;;;;;;11.69;86.35;99600.38;342087;28;1197;-73
2022/04/22 00:13:05;;;;;;;349.10;139.30;;;;;;;11.65;86.40;99602.28;338754;28;5052;-74
2022/04/22 00:13:15;;;;;;;349.17;139.43;;;;;;;11.57;86.06;99605.25;338996;28;2805;-74
2022/04/22 00:13:26;;;;;;;350.37;139.90;;;;;;;11.53;86.34;99602.81;339815;29;1855;-74
2022/04/22 00:13:36;;;;;;;351.33;138.80;;;;;;;11.49;86.49;99607.34;341163;28;2955;-74
2022/04/22 00:13:47;;;;;;;351.97;139.27;;;;;;;11.44;86.55;99598.84;343842;28;860;-74
2022/04/22 00:14:01;;;;;;;349.20;138.27;;;;;;;11.42;86.93;99598.06;345626;28;840;-73
2022/04/22 00:14:11;;;;;;;348.88;138.10;;;;;;;11.37;87.00;99594.78;343891;28;1445;-74
2022/04/22 00:14:22;;;;;;;351.10;138.63;;;;;;;11.34;87.34;99600.16;343578;28;1303;-74
2022/04/22 00:14:33;;;;;;;351.55;140.18;;;;;;;11.34;87.47;99600.16;343771;28;827;-74
2022/04/22 00:14:43;;;;;;;350.98;139.68;;;;;;;11.31;87.42;99595.06;343678;28;1400;-75
2022/04/22 00:14:54;;;;;;;349.33;138.57;;;;;;;11.29;87.54;99599.50;343366;28;1452;-77
2022/04/22 00:15:04;;;;;;;349.05;137.00;;;;;;;11.26;87.59;99594.44;339739;29;1395;-75
2022/04/22 00:15:15;;;;;;;348.67;136.82;;;;;;;11.22;87.79;99593.72;341131;28;863;-74
2022/04/22 00:15:25;;;;;;;349.37;138.17;;;;;;;11.19;87.68;99591.22;341436;28;836;-74
2022/04/22 00:15:36;;;;;;;352.92;140.02;;;;;;;11.17;87.55;99589.59;340303;28;1247;-74
2022/04/22 00:15:46;;;;;;;353.17;142.13;;;;;;;11.14;88.16;99589.72;338542;28;1282;-74
2022/04/22 00:15:57;;;;;;;352.13;142.93;;;;;;;11.13;88.02;99588.03;338287;29;928;-73
2022/04/22 00:16:07;;;;;;;352.58;145.48;;;;;;;11.10;88.22;99583.78;341616;28;1353;-74
2022/04/22 00:16:17;;;;;;;354.87;142.70;;;;;;;11.10;88.05;99582.91;342361;28;1282;-74
2022/04/22 00:16:29;;;;;;;353.40;142.40;;;;;;;11.11;88.15;99587.25;339700;29;1942;-74
2022/04/22 00:16:40;;;;;;;353.45;140.98;;;;;;;11.12;88.58;99587.19;342353;28;1412;-74
2022/04/22 00:16:50;;;;;;;354.20;141.60;;;;;;;11.12;88.53;99588.94;342474;28;1318;-74
2022/04/22 00:17:01;;;;;;;353.42;140.18;;;;;;;11.11;88.43;99587.25;341120;28;1075;-74
2022/04/22 00:17:11;;;;;;;350.03;137.77;;;;;;;11.12;88.39;99586.31;341187;28;1338;-74
2022/04/22 00:17:21;;;;;;;349.00;139.07;;;;;;;11.12;88.30;99581.09;343512;28;1346;-75
2022/04/22 00:17:32;;;;;;;349.97;140.13;;;;;;;11.12;88.47;99581.09;342222;28;1192;-74
2022/04/22 00:17:42;;;;;;;349.83;139.43;;;;;;;11.15;88.50;99586.19;341950;28;944;-74
2022/04/22 00:17:53;;;;;;;346.70;137.80;;;;;;;11.16;88.45;99582.66;341451;28;893;-74
2022/04/22 00:18:03;;;;;;;347.13;137.60;;;;;;;11.18;88.62;99575.59;341253;28;846;-74
2022/04/22 00:18:14;;;;;;;349.30;138.32;;;;;;;11.17;88.62;99576.50;341265;28;1303;-74
2022/04/22 00:18:24;;;;;;;351.05;139.00;;;;;;;11.18;88.35;99575.59;343946;28;1455;-74
2022/04/22 00:18:35;;;;;;;350.93;139.93;;;;;;;11.17;88.82;99573.88;338934;28;4104;-74
2022/04/22 00:18:45;;;;;;;349.08;140.38;;;;;;;11.18;88.26;99575.59;341336;28;2856;-74
2022/04/22 00:18:56;;;;;;;351.40;141.03;;;;;;;11.17;88.73;99568.66;339780;28;2040;-74
2022/04/22 00:19:06;;;;;;;350.73;139.20;;;;;;;11.18;88.53;99570.34;342303;28;3015;-75
2022/04/22 00:19:17;;;;;;;352.27;139.25;;;;;;;11.16;88.57;99569.56;342562;28;861;-74
2022/04/22 00:19:27;;;;;;;348.27;137.20;;;;;;;11.17;88.50;99576.50;342636;28;840;-74
2022/04/22 00:19:38;;;;;;;349.48;137.07;;;;;;;11.18;88.56;99570.34;340852;28;1410;-74
2022/04/22 00:19:48;;;;;;;349.17;138.30;;;;;;;11.20;88.45;99564.13;340130;28;1283;-74
2022/04/22 00:19:58;;;;;;;349.70;139.55;;;;;;;11.23;88.45;99568.38;345114;28;1902;-74
2022/04/22 00:20:10;;;;;;;349.97;139.90;;;;;;;11.23;88.50;99573.63;345252;28;803;-75
2022/04/22 00:20:20;;;;;;;351.60;139.57;;;;;;;11.22;88.42;99561.44;343625;28;1512;-74
2022/04/22 00:20:31;;;;;;;352.40;139.65;;;;;;;11.23;88.27;99563.13;340972;28;1593;-75
2022/04/22 00:20:41;;;;;;;353.87;140.73;;;;;;;11.23;88.00;99569.22;339420;28;1311;-74
2022/04/22 00:20:52;;;;;;;355.52;141.50;;;;;;;11.26;88.07;99560.38;338139;29;1312;-75
2022/04/22 00:21:02;;;;;;;354.23;142.23;;;;;;;11.27;88.19;99567.28;336873;28;1222;-75
2022/04/22 00:21:12;;;;;;;353.25;141.38;;;;;;;11.28;88.14;99555.88;342257;28;1236;-75
2022/04/22 00:21:23;;;;;;;349.20;140.63;;;;;;;11.28;88.15;99563.75;339913;28;1721;-74
2022/04/22 00:21:33;;;;;;;348.80;139.50;;;;;;;11.30;87.98;99556.69;340424;28;2010;-74
2022/04/22 00:21:44;;;;;;;348.93;139.90;;;;;;;11.31;87.87;99555.75;341009;28;1556;-74
2022/04/22 00:21:55;;;;;;;348.55;139.00;;;;;;;11.31;87.72;99555.75;342423;28;1622;-75
2022/04/22 00:22:05;;;;;;;348.50;138.43;;;;;;;11.31;87.61;99558.38;339723;29;1236;-75
2022/04/22 00:22:15;;;;;;;347.47;136.30;;;;;;;11.29;87.58;99552.34;340717;28;1294;-75
2022/04/22 00:22:26;;;;;;;348.53;135.97;;;;;;;11.30;87.42;99554.06;338345;28;1340;-74
2022/04/22 00:22:39;;;;;;;349.00;136.93;;;;;;;11.31;87.42;99551.38;340995;28;1288;-74
2022/04/22 00:22:50;;;;;;;350.85;138.20;;;;;;;11.31;87.37;99545.28;341234;28;892;-74
2022/04/22 00:23:00;;;;;;;351.20;139.93;;;;;;;11.32;87.29;99552.22;340859;28;1820;-74
2022/04/22 00:23:11;;;;;;;352.40;140.97;;;;;;;11.32;87.29;99553.06;343425;28;870;-74
2022/04/22 00:23:21;;;;;;;353.70;141.40;;;;;;;11.32;87.48;99555.69;343657;28;1374;-75
2022/04/22 00:23:31;;;;;;;354.40;140.90;;;;;;;11.31;87.57;99555.75;341877;28;1573;-75
2022/04/22 00:23:42;;;;;;;350.60;137.27;;;;;;;11.30;87.28;99540.97;343485;28;1936;-74
2022/04/22 00:23:52;;;;;;;347.50;135.50;;;;;;;11.32;87.38;99549.59;340160;28;1316;-74
2022/04/22 00:24:03;;;;;;;346.48;135.63;;;;;;;11.31;87.14;99548.75;340013;29;802;-74
2022/04/22 00:24:14;;;;;;;344.52;135.07;;;;;;;11.33;87.21;99552.16;340943;28;1485;-75
2022/04/22 00:24:25;;;;;;;344.30;135.00;;;;;;;11.36;87.31;99555.56;342198;28;899;-74
2022/04/22 00:24:35;;;;;;;344.10;134.87;;;;;;;11.38;87.24;99551.94;344995;28;1277;-74
2022/04/22 00:24:45;;;;;;;345.48;136.20;;;;;;;11.35;87.14;99552.09;342306;28;1308;-74
2022/04/22 00:24:56;;;;;;;346.40;136.10;;;;;;;11.36;87.34;99548.53;339692;29;1185;-74
2022/04/22 00:25:08;;;;;;;346.65;136.50;;;;;;;11.37;87.27;99550.25;342596;28;1053;-74
2022/04/22 00:25:18;;;;;;;348.20;136.70;;;;;;;11.38;87.06;99557.19;345303;28;959;-74
2022/04/22 00:25:29;;;;;;;349.87;138.43;;;;;;;11.39;87.21;99548.41;338388;29;1319;-74
2022/04/22 00:25:39;;;;;;;353.20;141.27;;;;;;;11.39;87.40;99551.03;338333;29;1276;-75
2022/04/22 00:25:49;;;;;;;351.23;142.13;;;;;;;11.39;87.04;99545.78;339314;28;1316;-74
2022/04/22 00:26:00;;;;;;;348.63;141.63;;;;;;;11.39;87.10;99553.66;340704;28;924;-75
2022/04/22 00:26:11;;;;;;;347.57;140.67;;;;;;;11.40;87.37;99544.03;341448;28;2115;-75
2022/04/22 00:26:21;;;;;;;348.83;140.02;;;;;;;11.41;87.25;99551.81;340872;28;1881;-75
2022/04/22 00:26:32;;;;;;;351.55;140.15;;;;;;;11.40;87.02;99555.34;341229;28;1351;-74
2022/04/22 00:26:42;;;;;;;351.13;138.53;;;;;;;11.43;87.11;99549.13;342593;28;1297;-74
2022/04/22 00:26:53;;;;;;;352.15;139.80;;;;;;;11.42;86.93;99550.88;342311;28;1511;-75
2022/04/22 00:27:03;;;;;;;350.60;137.93;;;;;;;11.44;87.05;99545.59;342327;28;1102;-74
2022/04/22 00:27:14;;;;;;;349.83;138.77;;;;;;;11.45;87.47;99548.13;341144;28;1264;-75
2022/04/22 00:27:24;;;;;;;348.37;136.90;;;;;;;11.46;87.21;99559.47;342168;28;904;-74
2022/04/22 00:27:36;;;;;;;348.40;135.98;;;;;;;11.47;87.29;99551.53;338358;29;1274;-75
2022/04/22 00:27:46;;;;;;;348.02;136.88;;;;;;;11.47;87.38;99546.28;337475;28;4757;-74
2022/04/22 00:27:56;;;;;;;346.60;137.70;;;;;;;11.48;87.36;99547.13;341530;28;4990;-75
2022/04/22 00:28:07;;;;;;;344.80;137.50;;;;;;;11.49;87.63;99554.94;342028;28;1997;-75
2022/04/22 00:28:17;;;;;;;348.25;138.20;;;;;;;11.51;87.63;99552.25;341953;28;5501;-75
2022/04/22 00:28:28;;;;;;;349.43;138.70;;;;;;;11.52;87.65;99548.72;339749;29;794;-75
2022/04/22 00:28:39;;;;;;;349.33;139.52;;;;;;;11.51;87.96;99549.63;342294;28;844;-75
2022/04/22 00:28:49;;;;;;;348.13;139.68;;;;;;;11.54;87.93;99552.97;342208;28;1730;-75
2022/04/22 00:29:00;;;;;;;348.37;138.80;;;;;;;11.52;88.06;99549.56;340948;28;1205;-75
2022/04/22 00:29:11;;;;;;;349.35;139.10;;;;;;;11.53;88.23;99551.25;339781;29;1030;-75
2022/04/22 00:29:21;;;;;;;347.55;137.75;;;;;;;11.54;88.47;99550.34;341171;28;767;-75
2022/04/22 00:29:32;;;;;;;347.77;139.87;;;;;;;11.54;89.03;99550.34;342207;28;862;-75
2022/04/22 00:29:42;;;;;;;346.47;139.40;;;;;;;11.53;88.54;99556.50;342481;28;1050;-76
2022/04/22 00:29:52;;;;;;;345.67;139.30;;;;;;;11.50;88.90;99546.16;339466;28;1294;-75
2022/04/22 00:30:05;;;;;;;348.45;138.25;;;;;;;11.53;88.99;99548.63;341131;28;901;-75
2022/04/22 00:30:15;;;;;;;350.90;138.55;;;;;;;11.54;89.11;99552.97;342148;28;1283;-75
2022/04/22 00:30:26;;;;;;;349.05;139.63;;;;;;;11.53;89.21;99551.25;341055;28;1239;-75
2022/04/22 00:30:36;;;;;;;346.47;138.83;;;;;;;11.52;89.26;99546.94;338903;28;1277;-75
2022/04/22 00:30:47;;;;;;;345.35;140.23;;;;;;;11.50;89.38;99551.41;338244;29;1328;-75
2022/04/22 00:30:57;;;;;;;346.65;140.27;;;;;;;11.49;89.80;99549.69;339209;28;1425;-75
2022/04/22 00:31:08;;;;;;;347.50;141.67;;;;;;;11.49;89.76;99547.06;339908;28;1820;-75
2022/04/22 00:31:18;;;;;;;346.10;139.27;;;;;;;11.47;89.86;99541.06;343446;28;1887;-75
2022/04/22 00:31:29;;;;;;;346.57;137.50;;;;;;;11.48;89.68;99548.00;342236;28;817;-73
2022/04/22 00:31:39;;;;;;;348.92;138.18;;;;;;;11.48;90.16;99547.13;341610;28;841;-73
2022/04/22 00:31:50;;;;;;;349.57;139.40;;;;;;;11.50;89.83;99545.31;338283;28;1297;-73
2022/04/22 00:32:00;;;;;;;350.15;139.60;;;;;;;11.48;89.93;99548.00;338593;29;885;-73
2022/04/22 00:32:10;;;;;;;350.57;139.17;;;;;;;11.50;89.87;99551.41;342302;28;1169;-75
2022/04/22 00:32:21;;;;;;;354.10;141.13;;;;;;;11.50;89.84;99543.53;340660;28;1330;-73
2022/04/22 00:32:33;;;;;;;352.75;141.65;;;;;;;11.50;89.82;99548.78;342669;28;1283;-73
2022/04/22 00:32:43;;;;;;;349.52;141.75;;;;;;;11.51;89.67;99547.84;342233;28;1549;-74
2022/04/22 00:32:54;;;;;;;349.92;142.40;;;;;;;11.53;89.77;99550.41;340890;28;1525;-74
2022/04/22 00:33:05;;;;;;;350.50;142.00;;;;;;;11.53;89.49;99546.00;340924;28;1455;-74
2022/04/22 00:33:16;;;;;;;351.80;142.15;;;;;;;11.53;89.21;99545.16;340969;28;878;-74
2022/04/22 00:33:27;;;;;;;350.77;141.27;;;;;;;11.54;89.37;99547.72;342555;28;967;-74
2022/04/22 00:33:37;;;;;;;352.83;141.27;;;;;;;11.54;89.40;99557.34;339884;29;957;-74
2022/04/22 00:33:48;;;;;;;352.70;142.63;;;;;;;11.54;89.25;99547.72;341071;28;1329;-74
2022/04/22 00:33:58;;;;;;;352.73;143.43;;;;;;;11.54;88.78;99549.50;343350;28;1561;-73
2022/04/22 00:34:08;;;;;;;351.10;143.57;;;;;;;11.53;89.07;99546.00;343737;28;916;-74
2022/04/22 00:34:19;;;;;;;351.47;141.53;;;;;;;11.54;89.19;99552.97;341398;28;1345;-75
2022/04/22 00:34:29;;;;;;;350.27;138.40;;;;;;;11.54;89.14;99547.72;342173;28;1200;-74
2022/04/22 00:34:40;;;;;;;351.23;137.93;;;;;;;11.55;89.04;99552.03;340913;28;1312;-74
2022/04/22 00:34:50;;;;;;;349.80;137.43;;;;;;;11.55;89.20;99554.66;342477;28;857;-74
2022/04/22 00:35:02;;;;;;;349.88;140.27;;;;;;;11.55;89.06;99554.66;342283;28;1930;-74
2022/04/22 00:35:12;;;;;;;348.55;139.65;;;;;;;11.56;89.25;99545.88;341385;28;940;-74
2022/04/22 00:35:23;;;;;;;348.80;140.90;;;;;;;11.56;89.24;99550.28;339596;29;1295;-74
2022/04/22 00:35:33;;;;;;;349.77;137.52;;;;;;;11.55;89.41;99554.66;340712;28;1197;-74
2022/04/22 00:35:44;;;;;;;349.07;140.17;;;;;;;11.55;89.28;99552.03;342260;28;1673;-74
2022/04/22 00:35:54;;;;;;;351.52;141.98;;;;;;;11.57;89.49;99547.56;340563;28;1807;-74
2022/04/22 00:36:05;;;;;;;353.23;145.83;;;;;;;11.57;89.60;99550.19;339632;28;1873;-74
2022/04/22 00:36:15;;;;;;;352.38;145.27;;;;;;;11.58;89.34;99551.91;342306;28;899;-74
2022/04/22 00:36:26;;;;;;;350.93;143.40;;;;;;;11.58;89.62;99549.28;340812;28;1794;-74
2022/04/22 00:36:36;;;;;;;348.10;141.88;;;;;;;11.59;89.50;99550.13;339632;29;1919;-74
2022/04/22 00:36:47;;;;;;;347.37;140.43;;;;;;;11.60;89.57;99552.69;342656;28;1205;-74
2022/04/22 00:36:57;;;;;;;348.30;141.68;;;;;;;11.59;89.48;99550.97;340052;28;2709;-74
2022/04/22 00:37:07;;;;;;;348.37;141.97;;;;;;;11.59;89.53;99550.97;341460;28;1640;-74
2022/04/22 00:37:18;;;;;;;351.55;143.45;;;;;;;11.60;89.55;99541.34;341937;28;1758;-74
2022/04/22 00:37:28;;;;;;;351.03;142.67;;;;;;;11.60;89.68;99551.84;344285;28;2768;-74
2022/04/22 00:37:40;;;;;;;352.30;142.68;;;;;;;11.58;89.73;99546.66;342385;28;911;-74
2022/04/22 00:37:50;;;;;;;350.02;141.93;;;;;;;11.57;89.54;99547.56;341125;28;1878;-74
2022/04/22 00:38:01;;;;;;;354.48;142.27;;;;;;;11.58;89.52;99549.28;340475;28;976;-74
2022/04/22 00:38:11;;;;;;;356.33;142.17;;;;;;;11.58;89.57;99551.91;338448;29;873;-74
2022/04/22 00:38:21;;;;;;;355.88;139.20;;;;;;;11.58;89.61;99546.66;342175;28;1288;-74
2022/04/22 00:38:32;;;;;;;351.67;138.17;;;;;;;11.59;88.95;99544.88;342502;28;882;-74
2022/04/22 00:38:42;;;;;;;349.40;138.35;;;;;;;11.56;89.30;99543.25;339058;29;1720;-74
2022/04/22 00:38:53;;;;;;;349.13;139.80;;;;;;;11.57;89.22;99542.34;339968;29;964;-74
2022/04/22 00:39:04;;;;;;;349.27;139.87;;;;;;;11.56;89.12;99545.88;341054;28;1173;-74
2022/04/22 00:39:16;;;;;;;352.02;139.35;;;;;;;11.58;89.29;99538.78;341251;28;845;-74
2022/04/22 00:39:26;;;;;;;351.88;139.00;;;;;;;11.58;89.36;99543.19;341342;28;955;-74
2022/04/22 00:39:37;;;;;;;349.57;138.67;;;;;;;11.57;89.16;99544.97;340794;28;1052;-75
2022/04/22 00:39:47;;;;;;;347.67;137.23;;;;;;;11.58;89.39;99544.03;339767;29;807;-75
2022/04/22 00:39:58;;;;;;;350.10;139.37;;;;;;;11.58;88.97;99543.19;340768;28;1471;-75
2022/04/22 00:40:09;;;;;;;349.92;138.85;;;;;;;11.57;89.16;99544.97;339440;28;1431;-74
2022/04/22 00:40:19;;;;;;;354.40;138.93;;;;;;;11.58;89.08;99544.03;341284;28;1053;-75
2022/04/22 00:40:29;;;;;;;354.70;137.57;;;;;;;11.58;89.09;99544.03;340963;28;1023;-74
2022/04/22 00:40:40;;;;;;;352.00;139.07;;;;;;;11.56;88.64;99540.63;341324;28;1416;-75
2022/04/22 00:40:52;;;;;;;349.00;141.27;;;;;;;11.57;88.99;99536.25;337869;28;1582;-75
2022/04/22 00:41:02;;;;;;;348.88;142.92;;;;;;;11.57;88.81;99544.97;338111;29;885;-75
2022/04/22 00:41:13;;;;;;;351.67;142.97;;;;;;;11.56;88.65;99540.63;340536;28;1134;-75
2022/04/22 00:41:23;;;;;;;350.80;142.37;;;;;;;11.56;89.04;99532.78;342027;28;1968;-74
2022/04/22 00:41:34;;;;;;;352.20;142.35;;;;;;;11.56;89.17;99534.53;341217;28;1288;-74
2022/04/22 00:41:44;;;;;;;351.63;142.33;;;;;;;11.55;89.12;99538.94;343376;28;1070;-74
2022/04/22 00:41:54;;;;;;;353.33;143.15;;;;;;;11.55;89.04;99528.44;342635;28;1118;-74
2022/04/22 00:42:09;;;;;;;351.07;142.83;;;;;;;11.58;88.88;99538.78;342709;28;845;-74
2022/04/22 00:42:19;;;;;;;350.73;142.30;;;;;;;11.59;89.04;99537.03;340076;28;1669;-74
2022/04/22 00:42:29;;;;;;;353.60;143.40;;;;;;;11.57;89.12;99531.84;338319;29;819;-74
2022/04/22 00:42:40;;;;;;;354.23;144.33;;;;;;;11.57;88.93;99536.25;341543;28;1435;-74
2022/04/22 00:42:50;;;;;;;353.10;144.30;;;;;;;11.59;88.70;99535.25;342103;28;1222;-74
2022/04/22 00:43:21;;;;;;;354.85;144.20;;;;;;;11.56;88.88;99532.78;342625;28;1685;-74
2022/04/22 00:43:41;;;;;;;352.80;141.32;;;;;;;11.61;88.56;99536.03;339595;29;1272;-74
2022/04/22 00:43:53;;;;;;;351.85;141.73;;;;;;;11.57;88.68;99531.84;339868;29;869;-74
2022/04/22 00:44:04;;;;;;;350.67;141.20;;;;;;;11.58;88.78;99532.69;343443;28;968;-74
2022/04/22 00:44:14;;;;;;;349.88;140.70;;;;;;;11.59;88.79;99530.00;340172;28;1835;-74
2022/04/22 00:44:24;;;;;;;351.37;141.60;;;;;;;11.59;88.65;99532.63;342050;28;1558;-74
2022/04/22 00:44:35;;;;;;;351.45;141.65;;;;;;;11.57;88.62;99531.84;342384;28;1071;-74
2022/04/22 00:44:45;;;;;;;350.20;140.83;;;;;;;11.58;88.60;99527.47;343677;28;1193;-74
2022/04/22 00:44:56;;;;;;;350.55;140.90;;;;;;;11.57;88.50;99526.59;342461;28;849;-75
2022/04/22 00:45:09;;;;;;;351.40;141.27;;;;;;;11.56;88.55;99524.91;338400;28;1292;-74
2022/04/22 00:45:20;;;;;;;351.13;141.73;;;;;;;11.58;88.90;99528.31;341049;28;1467;-75
2022/04/22 00:45:31;;;;;;;349.30;140.00;;;;;;;11.57;88.92;99526.59;340562;28;2135;-74
2022/04/22 00:45:42;;;;;;;350.00;140.77;;;;;;;11.56;88.94;99526.69;341095;28;1285;-74
2022/04/22 00:45:54;;;;;;;352.13;142.27;;;;;;;11.54;89.21;99532.00;339703;28;1590;-74
2022/04/22 00:46:04;;;;;;;351.90;146.60;;;;;;;11.55;89.22;99533.69;335904;28;3748;-74
2022/04/22 00:46:15;;;;;;;351.90;147.13;;;;;;;11.54;89.37;99536.38;341677;28;4944;-74
2022/04/22 00:46:25;;;;;;;353.70;148.00;;;;;;;11.51;89.57;99526.88;340743;28;1993;-74
2022/04/22 00:46:35;;;;;;;355.87;146.37;;;;;;;11.49;89.32;99525.25;341428;28;1970;-74
2022/04/22 00:46:46;;;;;;;352.97;143.90;;;;;;;11.48;89.00;99529.66;338465;29;4705;-74
2022/04/22 00:46:56;;;;;;;349.85;141.40;;;;;;;11.43;89.41;99529.00;338526;29;1209;-74
2022/04/22 00:47:06;;;;;;;349.33;141.10;;;;;;;11.45;89.14;99521.94;339933;28;1174;-74
2022/04/22 00:47:17;;;;;;;351.45;141.75;;;;;;;11.42;89.07;99527.31;341393;28;1307;-74
2022/04/22 00:47:27;;;;;;;350.40;140.10;;;;;;;11.42;89.37;99526.47;339929;29;905;-74
2022/04/22 00:47:38;;;;;;;351.50;141.07;;;;;;;11.40;89.07;99529.16;341665;28;818;-74
2022/04/22 00:47:48;;;;;;;352.57;140.17;;;;;;;11.39;89.30;99522.19;342185;28;919;-74
2022/04/22 00:47:58;;;;;;;354.65;142.20;;;;;;;11.36;89.22;99517.09;342356;28;1540;-74
2022/04/22 00:48:09;;;;;;;353.80;142.20;;;;;;;11.39;89.30;99519.59;342366;28;1170;-74
2022/04/22 00:48:20;;;;;;;354.43;144.20;;;;;;;11.39;89.37;99521.34;342910;28;905;-74
2022/04/22 00:48:30;;;;;;;353.85;143.23;;;;;;;11.38;89.31;99525.75;341095;28;822;-74
2022/04/22 00:48:40;;;;;;;351.45;140.27;;;;;;;11.38;89.10;99517.88;341165;28;1318;-74
2022/04/22 00:48:51;;;;;;;352.87;140.33;;;;;;;11.39;88.97;99516.97;339787;28;1157;-75
2022/04/22 00:49:01;;;;;;;352.88;141.43;;;;;;;11.40;89.66;99520.44;343805;28;1378;-74
2022/04/22 00:49:12;;;;;;;354.87;143.67;;;;;;;11.41;88.86;99515.13;341145;28;967;-74
2022/04/22 00:49:22;;;;;;;353.30;142.23;;;;;;;11.43;89.21;99520.28;343407;28;1832;-74
2022/04/22 00:49:33;;;;;;;352.50;142.00;;;;;;;11.41;89.16;99517.75;341043;28;1466;-74
2022/04/22 00:49:43;;;;;;;351.25;141.30;;;;;;;11.43;89.24;99518.53;344362;28;1219;-74
2022/04/22 00:49:53;;;;;;;352.33;143.27;;;;;;;11.44;89.06;99514.13;340604;28;1377;-75
2022/04/22 00:50:04;;;;;;;350.90;143.23;;;;;;;11.43;89.06;99513.28;342537;28;1664;-74
2022/04/22 00:50:15;;;;;;;350.80;143.68;;;;;;;11.45;89.42;99515.84;337676;28;1877;-75
2022/04/22 00:50:25;;;;;;;350.35;144.70;;;;;;;11.46;89.26;99517.53;339631;28;1858;-75